Time;durP1;ratioP1;P1;durP2;ratioP2;P2;SDS_P1;SDS_P2;PMS_P1;PMS_P2;Temp;Humidity;BMP_temperature;BMP_pressure;BME280_temperature;BME280_humidity;BME280_pressure;Samples;Min_cycle;Max_cycle;Signal;HPM_P1;HPM_P2
2022/03/30 00:01:10;;;;;;;37.47;14.57;;;5.20;99.90;;;;;;5094606;28;20040;-58
2022/03/30 00:03:36;;;;;;;33.42;14.57;;;5.20;99.90;;;;;;5094220;28;20048;-58
2022/03/30 00:06:04;;;;;;;32.70;14.95;;;5.20;99.90;;;;;;5094824;28;20407;-58
2022/03/30 00:08:29;;;;;;;32.03;15.85;;;5.10;99.90;;;;;;5094134;28;20502;-58
2022/03/30 00:10:55;;;;;;;34.00;14.23;;;5.20;99.90;;;;;;5094566;28;20040;-58
2022/03/30 00:13:21;;;;;;;37.40;15.50;;;5.10;99.90;;;;;;5094396;28;20040;-58
2022/03/30 00:15:46;;;;;;;34.05;14.95;;;5.10;99.90;;;;;;5094557;28;20124;-58
2022/03/30 00:18:12;;;;;;;32.92;14.95;;;5.10;99.90;;;;;;5076021;28;20043;-58
2022/03/30 00:20:38;;;;;;;35.95;16.40;;;5.10;99.90;;;;;;5087201;28;20085;-58
2022/03/30 00:23:03;;;;;;;36.40;15.88;;;5.00;99.90;;;;;;5090302;28;20093;-58
2022/03/30 00:25:29;;;;;;;30.63;15.48;;;5.00;99.90;;;;;;5094352;28;20443;-58
2022/03/30 00:27:54;;;;;;;30.15;14.32;;;5.00;99.90;;;;;;5093807;28;20460;-58
2022/03/30 00:30:21;;;;;;;31.05;15.57;;;4.90;99.90;;;;;;5094381;28;20043;-58
2022/03/30 00:32:47;;;;;;;31.73;14.13;;;4.90;99.90;;;;;;5093810;28;20091;-58
2022/03/30 00:35:14;;;;;;;27.90;14.25;;;4.90;99.90;;;;;;5094483;28;20172;-58
2022/03/30 00:37:40;;;;;;;32.05;14.52;;;4.80;99.90;;;;;;5093587;28;20036;-58
2022/03/30 00:40:08;;;;;;;24.30;14.00;;;4.80;99.90;;;;;;5094160;28;20115;-58
2022/03/30 00:42:34;;;;;;;31.35;14.43;;;4.70;99.90;;;;;;5094073;28;20032;-58
2022/03/30 00:45:08;;;;;;;31.40;13.90;;;4.70;99.90;;;;;;5094010;28;20126;-58
2022/03/30 00:47:33;;;;;;;31.85;14.85;;;4.60;99.90;;;;;;5093431;28;20495;-57
2022/03/30 00:50:02;;;;;;;30.13;14.15;;;4.60;99.90;;;;;;5093733;28;20043;-58
2022/03/30 00:52:28;;;;;;;36.35;14.07;;;4.60;99.90;;;;;;5093751;28;20032;-58
2022/03/30 00:54:53;;;;;;;32.60;14.57;;;4.50;99.90;;;;;;5093909;28;20040;-57
2022/03/30 00:57:22;;;;;;;35.85;15.27;;;4.50;99.90;;;;;;5091058;28;20039;-57
2022/03/30 00:59:48;;;;;;;30.90;14.43;;;4.50;99.90;;;;;;5074237;28;20403;-56
2022/03/30 01:02:15;;;;;;;32.85;14.77;;;4.50;99.90;;;;;;5093699;28;20044;-58
2022/03/30 01:04:41;;;;;;;34.92;14.70;;;4.50;99.90;;;;;;5093356;28;20036;-58
2022/03/30 01:07:06;;;;;;;34.63;14.00;;;4.50;99.90;;;;;;5075157;28;20164;-58
2022/03/30 01:09:32;;;;;;;36.25;15.02;;;4.50;99.90;;;;;;5093436;28;20119;-58
2022/03/30 01:11:58;;;;;;;29.60;15.02;;;4.50;99.90;;;;;;5093196;28;20074;-58
2022/03/30 01:14:25;;;;;;;30.92;14.93;;;4.40;99.90;;;;;;5093348;28;20564;-58
2022/03/30 01:16:51;;;;;;;37.85;16.73;;;4.40;99.90;;;;;;5087639;28;20044;-57
2022/03/30 01:19:17;;;;;;;35.38;16.65;;;4.30;99.90;;;;;;5086930;28;20036;-58
2022/03/30 01:21:43;;;;;;;35.28;17.50;;;4.30;99.90;;;;;;5072988;28;20037;-58
2022/03/30 01:24:11;;;;;;;34.60;16.60;;;4.30;99.90;;;;;;5073044;28;20039;-58
2022/03/30 01:26:37;;;;;;;35.85;17.27;;;4.30;99.90;;;;;;5073317;28;20040;-58
2022/03/30 01:32:25;;;;;;;35.63;17.42;;;4.20;99.90;;;;;;5092381;28;20051;-57
2022/03/30 01:34:35;;;;;;;33.53;16.50;;;4.30;99.90;;;;;;5092863;28;20439;-57
2022/03/30 01:37:02;;;;;;;43.25;17.90;;;4.30;99.90;;;;;;5074863;28;20518;-57
2022/03/30 01:39:27;;;;;;;33.75;15.95;;;4.30;99.90;;;;;;5092768;28;20051;-57
2022/03/30 01:41:53;;;;;;;39.08;16.42;;;4.30;99.90;;;;;;5074910;28;20044;-58
2022/03/30 01:44:18;;;;;;;39.15;17.08;;;4.30;99.90;;;;;;5092734;28;20047;-58
2022/03/30 01:46:44;;;;;;;37.33;17.38;;;4.30;99.90;;;;;;5092333;28;20045;-57
2022/03/30 01:49:09;;;;;;;35.22;15.82;;;4.30;99.90;;;;;;5092640;28;20087;-57
2022/03/30 01:51:35;;;;;;;36.42;16.48;;;4.30;99.90;;;;;;5092734;28;20180;-57
2022/03/30 01:54:01;;;;;;;41.22;16.85;;;4.30;99.90;;;;;;5092532;28;20472;-58
2022/03/30 01:56:26;;;;;;;35.67;16.33;;;4.30;99.90;;;;;;5092307;28;20616;-58
2022/03/30 01:58:52;;;;;;;39.03;17.00;;;4.30;99.90;;;;;;5092667;28;20040;-58
2022/03/30 02:01:17;;;;;;;35.53;17.05;;;4.30;99.90;;;;;;5091879;28;20071;-57
2022/03/30 02:03:43;;;;;;;31.73;16.65;;;4.20;99.90;;;;;;5092533;28;20062;-58
2022/03/30 02:06:09;;;;;;;41.90;17.05;;;4.20;99.90;;;;;;5092263;28;20040;-58
2022/03/30 02:08:35;;;;;;;35.75;17.33;;;4.20;99.90;;;;;;5091312;28;20526;-57
2022/03/30 02:11:00;;;;;;;38.60;17.38;;;4.20;99.90;;;;;;5092487;28;20035;-58
2022/03/30 02:13:27;;;;;;;35.95;16.27;;;4.20;99.90;;;;;;5092412;28;20054;-57
2022/03/30 02:15:52;;;;;;;34.33;16.02;;;4.30;99.90;;;;;;5092032;28;20071;-58
2022/03/30 02:18:19;;;;;;;37.42;16.17;;;4.20;99.90;;;;;;5091852;28;20028;-58
2022/03/30 02:20:44;;;;;;;38.45;16.58;;;4.20;99.90;;;;;;5092183;28;20044;-58
2022/03/30 02:23:10;;;;;;;37.83;16.25;;;4.20;99.90;;;;;;5091826;28;20419;-57
2022/03/30 02:25:35;;;;;;;34.40;15.30;;;4.20;99.90;;;;;;5073957;28;20075;-57
2022/03/30 02:28:03;;;;;;;37.58;16.48;;;4.10;99.90;;;;;;5091737;28;20514;-58
2022/03/30 02:30:29;;;;;;;38.50;16.95;;;4.10;99.90;;;;;;5091801;28;20089;-58
2022/03/30 02:32:55;;;;;;;39.20;18.05;;;4.20;99.90;;;;;;5082713;28;20106;-57
2022/03/30 02:35:21;;;;;;;35.22;18.38;;;4.10;99.90;;;;;;5082889;28;20121;-58
2022/03/30 02:37:46;;;;;;;39.40;17.23;;;4.20;99.90;;;;;;5089643;28;20043;-58
2022/03/30 02:40:12;;;;;;;41.63;18.33;;;4.30;99.90;;;;;;5092087;28;20032;-58
2022/03/30 02:42:37;;;;;;;46.72;18.73;;;4.30;99.90;;;;;;5091660;28;20408;-58
2022/03/30 02:45:04;;;;;;;38.75;17.92;;;4.40;99.90;;;;;;5091490;28;20166;-58
2022/03/30 02:50:13;;;;;;;42.67;19.60;;;4.50;99.90;;;;;;5091583;28;20051;-58
2022/03/30 02:52:39;;;;;;;38.25;17.77;;;4.50;99.90;;;;;;5091753;28;20044;-57
2022/03/30 02:55:06;;;;;;;38.78;19.25;;;4.60;99.90;;;;;;5091740;28;20523;-58
2022/03/30 02:57:31;;;;;;;40.95;18.65;;;4.60;99.90;;;;;;5091032;28;20039;-58
2022/03/30 02:59:57;;;;;;;41.05;19.95;;;4.70;99.90;;;;;;5091649;28;20422;-58
2022/03/30 03:02:22;;;;;;;43.13;19.05;;;4.70;99.90;;;;;;5091348;28;20028;-58
2022/03/30 03:04:48;;;;;;;47.65;19.63;;;4.70;99.90;;;;;;5091468;28;20052;-58
2022/03/30 03:07:16;;;;;;;38.17;19.38;;;4.80;99.90;;;;;;5091414;28;20471;-57
2022/03/30 03:09:42;;;;;;;41.72;19.77;;;4.80;99.90;;;;;;5091871;28;20400;-57
2022/03/30 03:12:07;;;;;;;39.45;17.05;;;4.90;99.90;;;;;;5091143;28;20043;-58
2022/03/30 03:14:33;;;;;;;39.15;17.90;;;4.90;99.90;;;;;;5091337;28;20052;-58
2022/03/30 03:16:59;;;;;;;37.50;19.70;;;4.80;99.90;;;;;;5091221;28;20032;-58
2022/03/30 03:19:24;;;;;;;40.10;18.73;;;4.80;99.90;;;;;;5091298;28;20484;-58
2022/03/30 03:21:50;;;;;;;39.03;18.60;;;4.80;99.90;;;;;;5095082;28;20028;-56
2022/03/30 03:24:15;;;;;;;42.33;18.25;;;4.80;99.90;;;;;;5095680;28;20036;-58
2022/03/30 03:26:41;;;;;;;42.45;19.48;;;4.70;99.90;;;;;;5095160;28;20134;-58
2022/03/30 03:29:06;;;;;;;39.60;18.98;;;4.70;99.90;;;;;;5095425;28;20421;-58
2022/03/30 03:31:32;;;;;;;35.55;18.15;;;4.80;99.90;;;;;;5095395;28;20115;-58
2022/03/30 03:33:58;;;;;;;39.45;18.30;;;4.80;99.90;;;;;;5095091;28;20040;-55
2022/03/30 03:36:23;;;;;;;37.67;18.92;;;4.70;99.90;;;;;;5095110;28;20055;-58
2022/03/30 03:38:49;;;;;;;39.72;20.10;;;4.70;99.90;;;;;;5095546;28;20120;-57
2022/03/30 03:41:15;;;;;;;37.63;19.92;;;4.70;99.90;;;;;;5095206;28;20397;-57
2022/03/30 03:43:41;;;;;;;42.90;19.67;;;4.70;99.90;;;;;;5095225;28;20051;-57
2022/03/30 03:46:06;;;;;;;41.88;19.95;;;4.70;99.90;;;;;;5094879;28;20117;-56
2022/03/30 03:48:32;;;;;;;46.88;19.70;;;4.70;99.90;;;;;;5094871;28;20079;-57
2022/03/30 03:50:58;;;;;;;42.33;19.27;;;4.70;99.90;;;;;;5095017;28;20036;-56
2022/03/30 03:53:24;;;;;;;42.05;19.67;;;4.80;99.90;;;;;;5094724;28;20043;-56
2022/03/30 03:55:49;;;;;;;46.47;19.40;;;4.80;99.90;;;;;;5094592;28;20404;-57
2022/03/30 03:58:15;;;;;;;39.42;19.40;;;4.80;99.90;;;;;;5094572;28;20115;-57
2022/03/30 04:00:40;;;;;;;43.08;19.52;;;4.80;99.90;;;;;;5087519;28;20040;-57
2022/03/30 04:03:06;;;;;;;46.67;19.98;;;4.80;99.90;;;;;;5074559;28;20127;-57
2022/03/30 04:05:32;;;;;;;39.08;18.95;;;4.80;99.90;;;;;;5094569;28;20082;-57
2022/03/30 04:07:58;;;;;;;39.72;19.85;;;4.80;99.90;;;;;;5094380;28;20047;-57
2022/03/30 04:10:24;;;;;;;39.33;18.42;;;4.80;99.90;;;;;;5094844;28;20479;-57
2022/03/30 04:12:49;;;;;;;44.22;19.95;;;4.80;99.90;;;;;;5094130;28;20475;-56
2022/03/30 04:15:15;;;;;;;42.35;19.95;;;4.80;99.90;;;;;;5094550;28;20040;-57
2022/03/30 04:17:45;;;;;;;40.88;18.90;;;4.90;99.90;;;;;;5094177;28;20112;-57
2022/03/30 04:20:12;;;;;;;37.85;19.90;;;4.80;99.90;;;;;;5094852;28;20044;-57
2022/03/30 04:22:38;;;;;;;39.75;18.75;;;4.90;99.90;;;;;;5109570;22;20455;-54
2022/03/30 04:25:07;;;;;;;47.13;19.48;;;4.90;99.90;;;;;;5074076;28;20041;-52
2022/03/30 04:27:33;;;;;;;44.75;19.33;;;4.90;99.90;;;;;;5073373;28;20044;-52
2022/03/30 04:29:59;;;;;;;38.85;17.98;;;4.90;99.90;;;;;;5074042;28;20052;-54
2022/03/30 04:32:25;;;;;;;42.63;19.40;;;5.00;99.90;;;;;;5068950;28;20040;-53
2022/03/30 04:34:50;;;;;;;43.75;20.85;;;5.00;99.90;;;;;;5064442;28;20499;-56
2022/03/30 04:37:16;;;;;;;47.78;20.15;;;5.00;99.90;;;;;;5072865;28;20496;-54
2022/03/30 04:39:42;;;;;;;44.45;18.92;;;5.10;99.90;;;;;;5022192;28;20043;-54
2022/03/30 04:42:08;;;;;;;40.45;18.08;;;5.10;99.90;;;;;;5033390;28;20040;-54
2022/03/30 04:44:33;;;;;;;43.13;19.73;;;5.10;99.90;;;;;;5073799;28;20444;-53
2022/03/30 04:46:59;;;;;;;43.40;18.90;;;5.20;99.90;;;;;;5073127;28;20381;-56
2022/03/30 04:49:24;;;;;;;38.10;18.45;;;5.20;99.90;;;;;;5073947;28;20072;-56
2022/03/30 04:51:50;;;;;;;41.78;17.45;;;5.20;99.90;;;;;;5073837;28;20128;-54
2022/03/30 04:54:17;;;;;;;36.10;18.27;;;5.20;99.90;;;;;;5073706;28;20076;-54
2022/03/30 04:56:44;;;;;;;40.15;18.33;;;5.20;99.90;;;;;;5073403;28;20040;-56
2022/03/30 04:59:10;;;;;;;37.78;17.08;;;5.20;99.90;;;;;;5055650;28;20559;-53
2022/03/30 05:01:37;;;;;;;35.55;16.48;;;5.20;99.90;;;;;;5053372;28;20036;-54
2022/03/30 05:04:04;;;;;;;38.30;18.02;;;5.30;99.90;;;;;;5059991;28;20045;-56
2022/03/30 05:06:31;;;;;;;37.20;16.77;;;5.30;99.90;;;;;;5064037;28;20539;-54
2022/03/30 05:08:57;;;;;;;36.28;15.68;;;5.30;99.90;;;;;;5026549;28;20114;-54
2022/03/30 05:11:23;;;;;;;35.65;16.98;;;5.30;99.90;;;;;;5053648;28;20041;-54
2022/03/30 05:13:48;;;;;;;43.13;18.80;;;5.30;99.90;;;;;;5051314;28;20040;-54
2022/03/30 05:16:14;;;;;;;37.92;17.20;;;5.30;99.90;;;;;;5073313;28;20201;-56
2022/03/30 05:18:39;;;;;;;37.05;16.95;;;5.30;99.90;;;;;;5073443;28;20051;-54
2022/03/30 05:21:05;;;;;;;38.70;16.23;;;5.20;99.90;;;;;;5064933;28;20035;-54
2022/03/30 05:23:31;;;;;;;38.38;16.45;;;5.30;99.90;;;;;;5063804;28;20036;-54
2022/03/30 05:25:56;;;;;;;40.63;17.65;;;5.30;99.90;;;;;;5059866;28;20040;-54
2022/03/30 05:28:22;;;;;;;45.65;16.85;;;5.20;99.90;;;;;;5060370;28;20076;-53
2022/03/30 05:30:48;;;;;;;42.28;17.10;;;5.20;99.90;;;;;;5072605;28;20098;-55
2022/03/30 05:33:14;;;;;;;41.03;16.17;;;5.20;99.90;;;;;;5054877;28;20519;-55
2022/03/30 05:35:40;;;;;;;34.75;16.17;;;5.30;99.90;;;;;;5038518;28;20393;-54
2022/03/30 05:38:05;;;;;;;34.65;16.75;;;5.30;99.90;;;;;;5072901;28;20036;-54
2022/03/30 05:40:31;;;;;;;36.08;16.35;;;5.40;99.90;;;;;;5072898;28;20047;-51
2022/03/30 05:42:57;;;;;;;34.22;15.38;;;5.30;99.90;;;;;;5053368;28;20066;-54
2022/03/30 05:45:23;;;;;;;37.35;16.67;;;5.30;99.90;;;;;;5060440;28;20112;-54
2022/03/30 05:47:48;;;;;;;35.90;15.23;;;5.40;99.90;;;;;;5070059;28;20070;-54
2022/03/30 05:50:14;;;;;;;26.42;12.48;;;5.40;99.90;;;;;;5064290;28;20032;-52
2022/03/30 05:52:39;;;;;;;31.77;14.18;;;5.40;99.90;;;;;;5072895;28;20048;-54
2022/03/30 05:55:06;;;;;;;34.13;14.35;;;5.40;99.90;;;;;;5071761;28;20037;-53
2022/03/30 05:57:32;;;;;;;32.75;14.50;;;5.40;99.90;;;;;;5072148;28;20055;-53
2022/03/30 05:59:58;;;;;;;36.40;15.27;;;5.40;99.90;;;;;;5071972;28;20484;-54
2022/03/30 06:02:23;;;;;;;29.88;13.73;;;5.50;99.90;;;;;;5072346;28;20032;-54
2022/03/30 06:04:50;;;;;;;32.30;12.82;;;5.40;99.90;;;;;;5054838;28;20036;-54
2022/03/30 06:07:17;;;;;;;23.45;11.30;;;5.50;99.90;;;;;;5047885;28;20496;-55
2022/03/30 06:09:43;;;;;;;28.45;11.00;;;5.50;99.90;;;;;;5026050;28;20047;-54
2022/03/30 06:12:09;;;;;;;27.02;10.55;;;5.60;99.90;;;;;;5020990;28;20105;-55
2022/03/30 06:14:35;;;;;;;21.30;9.00;;;5.60;99.90;;;;;;5037489;28;20040;-56
2022/03/30 06:17:03;;;;;;;24.40;9.70;;;5.70;99.90;;;;;;5072179;28;20128;-54
2022/03/30 06:19:30;;;;;;;18.48;7.30;;;5.70;99.90;;;;;;5072267;28;20040;-54
2022/03/30 06:21:56;;;;;;;13.57;5.70;;;5.80;99.90;;;;;;5071636;28;20032;-55
2022/03/30 06:24:22;;;;;;;11.80;4.88;;;5.80;99.90;;;;;;5071218;28;20032;-53
2022/03/30 06:26:47;;;;;;;17.00;5.93;;;5.90;99.90;;;;;;5053846;28;20094;-55
2022/03/30 06:29:13;;;;;;;11.93;5.20;;;5.90;99.90;;;;;;5072017;28;20045;-53
2022/03/30 06:31:40;;;;;;;11.45;5.25;;;6.00;99.90;;;;;;5070886;28;20447;-54
2022/03/30 06:34:06;;;;;;;12.48;5.40;;;6.00;99.90;;;;;;5069071;28;20471;-54
2022/03/30 06:36:33;;;;;;;10.77;4.80;;;6.10;99.90;;;;;;5062371;28;20075;-55
2022/03/30 06:39:00;;;;;;;9.27;4.45;;;6.10;99.90;;;;;;5028961;28;20492;-52
2022/03/30 06:41:26;;;;;;;10.82;4.07;;;6.10;99.90;;;;;;5071547;28;20367;-54
2022/03/30 06:43:51;;;;;;;5.25;2.78;;;6.10;99.90;;;;;;5053848;28;20144;-54
2022/03/30 06:46:18;;;;;;;8.43;3.28;;;6.10;99.90;;;;;;5053822;28;20202;-55
2022/03/30 06:48:47;;;;;;;8.40;3.28;;;6.20;99.90;;;;;;5071575;28;20510;-55
2022/03/30 06:51:14;;;;;;;7.38;2.60;;;6.30;99.90;;;;;;5071802;28;20043;-54
2022/03/30 06:53:41;;;;;;;4.80;2.40;;;6.30;99.90;;;;;;5061316;28;20040;-56
2022/03/30 06:56:08;;;;;;;4.38;2.40;;;6.30;99.90;;;;;;5059263;28;20163;-54
2022/03/30 06:58:34;;;;;;;6.70;2.50;;;6.30;99.90;;;;;;5040079;28;20036;-53
2022/03/30 07:01:00;;;;;;;5.00;2.50;;;6.40;99.90;;;;;;5061836;28;20032;-54
2022/03/30 07:03:29;;;;;;;4.55;2.55;;;6.60;99.90;;;;;;5064095;28;20036;-54
2022/03/30 07:05:55;;;;;;;7.82;2.70;;;6.60;99.90;;;;;;5063120;28;20037;-54
2022/03/30 07:11:06;;;;;;;5.72;3.03;;;6.70;99.90;;;;;;5055234;28;20125;-54
2022/03/30 07:13:32;;;;;;;6.18;3.33;;;6.70;99.90;;;;;;5055421;28;20072;-54
2022/03/30 07:15:57;;;;;;;12.90;3.58;;;6.70;99.90;;;;;;5055663;28;20040;-55
2022/03/30 07:18:23;;;;;;;5.88;2.80;;;6.70;99.90;;;;;;5056908;28;20033;-57
2022/03/30 07:20:49;;;;;;;5.90;3.33;;;6.70;99.90;;;;;;5053395;28;20446;-54
2022/03/30 07:23:15;;;;;;;4.70;2.95;;;6.70;99.90;;;;;;5050338;28;20037;-53
2022/03/30 07:25:41;;;;;;;8.07;3.70;;;6.80;99.90;;;;;;5059124;28;20036;-54
2022/03/30 07:28:07;;;;;;;5.60;2.92;;;6.80;99.90;;;;;;5052763;28;20091;-55
2022/03/30 07:30:33;;;;;;;6.10;3.60;;;6.70;99.90;;;;;;5055722;28;20045;-53
2022/03/30 07:33:00;;;;;;;9.05;3.00;;;6.70;99.90;;;;;;5058399;28;20041;-52
2022/03/30 07:35:27;;;;;;;6.50;3.97;;;6.80;99.90;;;;;;5051129;28;20042;-54
2022/03/30 07:37:55;;;;;;;4.95;2.90;;;6.80;99.90;;;;;;5051473;28;20079;-53
2022/03/30 07:40:24;;;;;;;6.47;3.38;;;6.90;99.90;;;;;;5052032;28;20033;-52
2022/03/30 07:42:51;;;;;;;5.20;3.30;;;6.90;99.90;;;;;;5061150;28;20044;-56
2022/03/30 07:45:17;;;;;;;6.03;2.90;;;6.90;99.90;;;;;;5070587;28;20123;-55
2022/03/30 07:47:43;;;;;;;4.15;2.65;;;6.90;99.90;;;;;;5053695;28;20048;-50
2022/03/30 07:50:10;;;;;;;5.53;2.50;;;6.90;99.90;;;;;;5069429;28;20043;-49
2022/03/30 07:52:36;;;;;;;3.33;2.00;;;6.90;99.90;;;;;;5062887;28;20049;-52
2022/03/30 07:55:04;;;;;;;4.55;2.67;;;7.00;99.90;;;;;;5061658;28;20412;-51
2022/03/30 07:57:29;;;;;;;5.15;2.42;;;6.90;99.90;;;;;;5056215;28;20037;-50
2022/03/30 08:00:00;;;;;;;4.30;2.42;;;6.90;99.90;;;;;;5042709;28;20086;-49
2022/03/30 08:02:27;;;;;;;4.32;2.35;;;6.90;99.90;;;;;;5062587;28;20033;-49
2022/03/30 08:04:54;;;;;;;4.47;2.30;;;6.90;99.90;;;;;;5045376;28;20040;-50
2022/03/30 08:07:21;;;;;;;2.88;2.22;;;6.90;99.90;;;;;;5061450;28;20070;-50
2022/03/30 08:09:47;;;;;;;3.72;2.47;;;7.10;99.90;;;;;;5063389;28;20040;-50
2022/03/30 08:12:14;;;;;;;4.93;2.13;;;7.00;99.90;;;;;;5061359;28;20089;-50
2022/03/30 08:14:41;;;;;;;5.90;2.58;;;7.10;99.90;;;;;;5026490;28;20033;-50
2022/03/30 08:17:07;;;;;;;5.40;2.67;;;7.20;99.90;;;;;;5062229;28;20039;-52
2022/03/30 08:19:32;;;;;;;5.13;2.55;;;7.10;99.90;;;;;;5060340;28;20484;-50
2022/03/30 08:24:46;;;;;;;6.55;2.78;;;7.20;99.90;;;;;;5060929;28;20530;-49
2022/03/30 08:27:17;;;;;;;6.32;3.03;;;7.10;99.90;;;;;;5060098;28;20045;-51
2022/03/30 08:29:44;;;;;;;4.43;2.13;;;7.10;99.90;;;;;;5069909;28;20036;-50
2022/03/30 08:32:11;;;;;;;4.68;2.20;;;7.10;99.90;;;;;;5042178;28;20400;-49
2022/03/30 08:34:38;;;;;;;5.53;2.00;;;7.20;99.90;;;;;;5022758;28;20137;-50
2022/03/30 08:37:04;;;;;;;3.80;2.30;;;7.10;99.90;;;;;;5057759;28;20083;-51
2022/03/30 08:39:29;;;;;;;4.43;2.33;;;7.20;99.90;;;;;;5056154;28;20114;-50
2022/03/30 08:41:55;;;;;;;5.22;2.10;;;7.30;99.90;;;;;;5035803;28;20462;-50
2022/03/30 08:44:21;;;;;;;4.30;2.60;;;7.30;99.90;;;;;;5028248;28;20075;-50
2022/03/30 08:46:48;;;;;;;3.33;2.30;;;7.20;99.90;;;;;;5065505;28;20071;-53
2022/03/30 08:49:14;;;;;;;4.55;2.35;;;7.30;99.90;;;;;;5069617;28;20044;-50
2022/03/30 08:51:42;;;;;;;3.90;2.50;;;7.30;99.90;;;;;;5059092;28;20049;-50
2022/03/30 08:54:12;;;;;;;4.20;2.10;;;7.30;99.90;;;;;;5055392;28;20107;-50
2022/03/30 08:56:39;;;;;;;5.28;3.17;;;7.30;99.90;;;;;;5055533;28;20755;-51
2022/03/30 08:59:06;;;;;;;5.85;3.05;;;7.40;99.90;;;;;;5058507;28;20090;-52
2022/03/30 09:01:34;;;;;;;5.28;3.20;;;7.40;99.90;;;;;;5058002;28;20029;-50
2022/03/30 09:04:03;;;;;;;6.28;3.42;;;7.40;99.90;;;;;;5051995;28;20348;-50
2022/03/30 09:06:30;;;;;;;4.95;2.58;;;7.40;99.90;;;;;;5054322;28;20075;-50
2022/03/30 09:08:58;;;;;;;5.93;3.22;;;7.60;99.90;;;;;;5054884;28;20045;-50
2022/03/30 09:11:32;;;;;;;5.65;3.70;;;7.90;99.90;;;;;;5055835;28;20040;-53
2022/03/30 09:14:05;;;;;;;4.05;2.20;;;7.80;99.90;;;;;;5058580;28;20040;-54
2022/03/30 09:16:43;;;;;;;3.30;2.10;;;7.80;99.90;;;;;;5042315;28;20594;-52
2022/03/30 09:19:11;;;;;;;5.20;2.90;;;7.90;99.90;;;;;;5062981;28;20041;-53
2022/03/30 09:21:52;;;;;;;6.55;3.13;;;7.90;99.90;;;;;;5061058;28;20037;-53
2022/03/30 09:24:21;;;;;;;7.85;3.88;;;7.80;99.90;;;;;;5065519;28;20064;-50
2022/03/30 09:26:47;;;;;;;7.13;3.55;;;7.80;99.90;;;;;;5031890;28;20079;-53
2022/03/30 09:29:14;;;;;;;7.88;4.00;;;7.90;99.90;;;;;;5040739;28;20060;-52
2022/03/30 09:31:41;;;;;;;10.02;4.25;;;7.80;99.90;;;;;;5054351;28;20041;-50
2022/03/30 09:34:09;;;;;;;6.63;4.07;;;7.80;99.90;;;;;;5033522;28;20041;-50
2022/03/30 09:36:37;;;;;;;7.18;3.80;;;7.80;99.90;;;;;;5053545;28;20029;-50
2022/03/30 09:39:04;;;;;;;15.38;3.80;;;7.90;99.90;;;;;;5054056;28;20455;-54
2022/03/30 09:41:46;;;;;;;8.93;3.40;;;8.10;99.90;;;;;;5049962;28;20033;-51
2022/03/30 09:44:11;;;;;;;8.25;3.80;;;8.30;99.90;;;;;;5026890;28;20033;-51
2022/03/30 09:46:54;;;;;;;7.28;3.83;;;8.30;99.90;;;;;;5064116;28;20123;-51
2022/03/30 09:49:41;;;;;;;5.60;3.45;;;8.30;99.80;;;;;;5057583;28;20496;-53
2022/03/30 09:52:28;;;;;;;6.75;3.78;;;8.30;99.90;;;;;;5040755;28;20139;-50
2022/03/30 09:55:04;;;;;;;7.55;3.33;;;8.30;99.90;;;;;;5041536;28;20040;-50
2022/03/30 09:57:43;;;;;;;9.25;3.80;;;8.30;99.80;;;;;;5056615;28;20086;-54
2022/03/30 10:00:16;;;;;;;5.80;2.55;;;8.40;99.30;;;;;;5038069;28;20047;-50
2022/03/30 10:02:43;;;;;;;6.03;3.00;;;8.50;98.80;;;;;;5057804;28;20121;-50
2022/03/30 10:05:11;;;;;;;6.15;2.95;;;8.40;98.50;;;;;;5045389;28;20040;-50
2022/03/30 10:07:37;;;;;;;7.22;2.78;;;8.50;98.20;;;;;;5060905;28;20044;-50
2022/03/30 10:10:04;;;;;;;5.25;2.67;;;8.50;98.30;;;;;;5059718;28;20056;-50
2022/03/30 10:12:31;;;;;;;6.03;2.45;;;8.50;98.00;;;;;;5048379;28;20048;-50
2022/03/30 10:14:57;;;;;;;4.70;2.35;;;8.50;97.40;;;;;;5053487;28;20500;-53
2022/03/30 10:17:25;;;;;;;5.88;2.45;;;8.60;97.10;;;;;;5068891;28;20046;-50
2022/03/30 10:19:53;;;;;;;5.15;2.20;;;8.60;96.60;;;;;;5068574;28;20044;-51
2022/03/30 10:22:31;;;;;;;4.25;2.15;;;8.60;97.50;;;;;;5064391;28;20124;-50
2022/03/30 10:25:34;;;;;;;14.95;3.22;;;8.70;96.10;;;;;;5060069;28;20044;-51
2022/03/30 10:28:24;;;;;;;6.63;2.80;;;8.60;96.50;;;;;;5052845;28;20488;-50
2022/03/30 10:30:56;;;;;;;6.30;3.70;;;8.70;96.50;;;;;;5062561;28;20055;-52
2022/03/30 10:33:32;;;;;;;10.15;4.40;;;8.60;97.30;;;;;;5057123;28;20081;-52
2022/03/30 10:36:18;;;;;;;8.88;4.57;;;8.50;97.20;;;;;;5058986;28;20068;-52
2022/03/30 10:39:14;;;;;;;8.68;4.60;;;9.00;97.70;;;;;;5057780;28;20041;-50
2022/03/30 10:41:51;;;;;;;9.55;4.70;;;8.50;98.10;;;;;;5053404;28;20504;-53
2022/03/30 10:44:32;;;;;;;8.45;4.32;;;8.50;98.60;;;;;;5034431;28;20408;-52
2022/03/30 10:47:21;;;;;;;8.38;4.18;;;8.50;99.10;;;;;;5063298;28;20072;-50
2022/03/30 10:49:51;;;;;;;6.80;3.05;;;8.50;99.20;;;;;;5058088;28;20032;-52
2022/03/30 10:52:32;;;;;;;6.97;3.17;;;8.50;98.80;;;;;;5059107;28;20063;-50
2022/03/30 10:55:12;;;;;;;7.32;2.40;;;8.50;99.00;;;;;;5061477;28;20123;-52
2022/03/30 10:57:51;;;;;;;8.52;2.55;;;8.60;98.80;;;;;;5053256;28;20040;-50
2022/03/30 11:00:22;;;;;;;8.57;2.67;;;8.80;98.90;;;;;;5057985;28;20047;-50
2022/03/30 11:02:49;;;;;;;6.00;2.20;;;8.80;98.20;;;;;;5061857;28;20052;-50
2022/03/30 11:05:17;;;;;;;5.38;2.10;;;8.90;98.20;;;;;;5043396;28;20115;-53
2022/03/30 11:07:43;;;;;;;4.40;1.90;;;8.80;98.40;;;;;;5065970;28;20123;-55
2022/03/30 11:10:15;;;;;;;4.95;1.77;;;9.00;98.30;;;;;;5049299;28;20040;-53
2022/03/30 11:13:02;;;;;;;3.58;1.80;;;8.90;98.50;;;;;;5066864;28;20048;-54
2022/03/30 11:15:29;;;;;;;5.10;1.85;;;9.10;97.70;;;;;;5020060;28;20473;-54
2022/03/30 11:17:56;;;;;;;5.07;1.40;;;9.00;96.70;;;;;;5064297;28;20037;-53
2022/03/30 11:20:23;;;;;;;2.58;1.52;;;9.30;95.60;;;;;;5058872;28;20036;-54
2022/03/30 11:22:50;;;;;;;4.95;1.60;;;9.20;95.00;;;;;;5057722;28;20123;-54
2022/03/30 11:25:21;;;;;;;3.65;1.67;;;9.10;94.60;;;;;;5040462;28;20501;-53
2022/03/30 11:27:59;;;;;;;3.58;1.80;;;9.00;94.60;;;;;;5053380;28;20075;-52
2022/03/30 11:30:28;;;;;;;3.22;1.92;;;9.00;94.50;;;;;;5036542;28;20455;-51
2022/03/30 11:33:13;;;;;;;4.10;1.80;;;9.00;93.90;;;;;;5055363;28;20096;-52
2022/03/30 11:35:43;;;;;;;3.20;1.65;;;9.00;94.20;;;;;;5057312;28;20370;-54
2022/03/30 11:38:09;;;;;;;5.00;1.80;;;8.90;94.60;;;;;;5059688;28;20071;-54
2022/03/30 11:40:43;;;;;;;4.43;2.10;;;8.90;95.40;;;;;;5079955;22;20068;-54
2022/03/30 11:43:10;;;;;;;5.28;1.88;;;8.90;94.70;;;;;;5066410;28;20036;-53
2022/03/30 11:45:37;;;;;;;5.30;1.50;;;8.90;94.60;;;;;;5048847;28;20043;-54
2022/03/30 11:48:11;;;;;;;3.65;1.90;;;8.90;93.20;;;;;;5064955;28;20064;-53
2022/03/30 11:50:42;;;;;;;4.50;1.67;;;8.90;92.40;;;;;;5043641;28;20036;-53
2022/03/30 11:53:12;;;;;;;4.30;1.60;;;8.90;92.20;;;;;;5058017;28;20045;-53
2022/03/30 11:56:08;;;;;;;5.90;1.70;;;9.00;91.10;;;;;;5055968;28;20724;-54
2022/03/30 11:58:34;;;;;;;5.30;1.98;;;9.00;91.20;;;;;;5062913;28;20511;-53
2022/03/30 12:01:15;;;;;;;5.03;2.10;;;9.00;92.00;;;;;;5059236;28;20060;-53
2022/03/30 12:03:42;;;;;;;3.47;1.80;;;9.10;91.20;;;;;;5059914;28;20539;-53
2022/03/30 12:06:09;;;;;;;5.57;1.90;;;9.20;90.80;;;;;;5025756;28;20037;-54
2022/03/30 12:08:49;;;;;;;6.50;2.13;;;9.10;92.30;;;;;;5070938;28;20032;-54
2022/03/30 12:11:23;;;;;;;3.38;1.80;;;9.00;93.60;;;;;;5060783;28;20052;-53
2022/03/30 12:13:51;;;;;;;7.15;2.00;;;8.90;94.30;;;;;;5061540;28;20044;-53
2022/03/30 12:16:17;;;;;;;4.20;1.90;;;8.70;94.70;;;;;;5059969;28;20313;-53
2022/03/30 12:18:45;;;;;;;4.93;1.83;;;8.70;95.20;;;;;;5062255;28;20129;-53
2022/03/30 12:21:18;;;;;;;6.97;1.90;;;8.70;95.50;;;;;;5066792;28;20071;-53
2022/03/30 12:23:49;;;;;;;5.15;1.60;;;8.70;95.50;;;;;;5071025;28;20045;-53
2022/03/30 12:26:15;;;;;;;2.53;1.63;;;8.80;95.70;;;;;;5070830;28;20032;-54
2022/03/30 12:28:42;;;;;;;6.40;1.90;;;8.70;95.50;;;;;;5070802;28;20051;-53
2022/03/30 12:31:08;;;;;;;6.22;2.00;;;8.80;95.00;;;;;;5070189;28;20044;-53
2022/03/30 12:33:45;;;;;;;2.80;1.50;;;8.70;95.80;;;;;;5052790;28;20040;-52
2022/03/30 12:36:16;;;;;;;8.98;1.85;;;8.70;95.70;;;;;;5063075;28;20442;-52
2022/03/30 12:38:42;;;;;;;5.60;1.92;;;8.80;94.60;;;;;;5056534;28;20098;-53
2022/03/30 12:41:07;;;;;;;4.35;2.00;;;8.80;94.80;;;;;;5058089;28;20040;-54
2022/03/30 12:43:33;;;;;;;4.18;2.17;;;8.90;93.40;;;;;;5052162;28;20071;-55
2022/03/30 12:46:00;;;;;;;3.47;1.67;;;8.80;94.90;;;;;;5066312;28;20032;-54
2022/03/30 12:48:29;;;;;;;3.78;1.70;;;8.80;94.80;;;;;;5070265;28;20083;-53
2022/03/30 12:50:58;;;;;;;6.75;2.00;;;8.90;93.40;;;;;;5070161;28;20041;-52
2022/03/30 12:53:30;;;;;;;6.45;1.65;;;8.80;92.90;;;;;;5051397;28;20120;-54
2022/03/30 12:56:08;;;;;;;4.80;1.50;;;8.90;91.90;;;;;;5050860;28;20041;-54
2022/03/30 12:58:34;;;;;;;3.30;1.65;;;9.00;90.30;;;;;;5059489;28;20097;-54
2022/03/30 13:01:01;;;;;;;4.72;1.75;;;9.00;90.60;;;;;;5070728;28;20036;-54